Flight Track Log - Related Links

Times and Time Zones

All times are in EDT time to prevent confusion due to time zone crossing. See the UAL4670 flight status page for this flight to view local times or setup timezone preferences in your user account.

Time Position Orientation Groundspeed Altitude Reporting Facility
EDT Latitude Longitude Course Direction KTS MPH feet Rate Location/Type
Thu 11:51:53 PM 29.9639 -95.3433 105° East 163 188 500  Level Houston Center
Thu 11:52:54 PM 29.9192 -95.3150 151° Southeast 173 199 2,600 1,747 Climbing Houston Center
Thu 11:53:12 PM 29.9078 -95.3081 152° Southeast 183 211 2,800 2,164 Climbing Houston Center
Thu 11:53:55 PM 29.8589 -95.2764 151° Southeast 248 285 4,800 2,700 Climbing Houston Center
Thu 11:54:12 PM 29.8503 -95.2647 130° Southeast 239 275 5,500 2,615 Climbing Houston Center
Thu 11:55:00 PM 29.9930 -94.8945 97° East  Level Estimated
Thu 11:55:13 PM 29.8028 -95.2031 132° Southeast 253 291 8,200  Level Houston Center
Thu 11:56:00 PM 29.9674 -94.7867 105° East  Level FlightAware Approximate
Thu 11:56:14 PM 29.7861 -95.1244 104° East 277 319 10,300  Level Houston Center
Thu 11:57:00 PM 29.9417 -94.6790 105° East  Level FlightAware Approximate
Thu 11:57:14 PM 29.7983 -95.0292 82° East 293 337 12,000  Level Houston Center
Thu 11:58:15 PM 29.8044 -94.9236 86° East 320 368 13,300 1,328 Climbing Houston Center
Thu 11:59:16 PM 29.8153 -94.8122 84° East 341 392 14,700 1,388 Climbing Houston Center
Fri 12:00:16 AM 29.8567 -94.7025 66° East 382 440 16,100 1,636 Climbing Houston Center
Fri 12:01:17 AM 29.9086 -94.6022 59° Northeast 370 426 18,000 1,934 Climbing Houston Center
Fri 12:02:17 AM 29.9428 -94.4944 70° East 371 427 20,000 2,033 Climbing Houston Center
Fri 12:03:18 AM 29.9553 -94.3831 83° East 343 395 22,100 1,488 Climbing Houston Center
Fri 12:04:18 AM 29.9606 -94.2739 87° East 342 394 23,000 446 Climbing Houston Center
Fri 12:05:19 AM 29.9681 -94.1497 86° East 388 447 23,000 -49 Level Houston Center
Fri 12:06:20 AM 29.9378 -94.0200 105° East 427 491 22,900  Descending Houston Center
Fri 12:07:20 AM 29.9114 -93.8825 102° East 450 518 23,000 50 Climbing Houston Center
Fri 12:08:21 AM 29.9244 -93.7358 84° East 462 532 23,000  Level Houston Center
Fri 12:09:21 AM 29.9356 -93.5875 85° East 466 536 23,000  Level Houston Center
Fri 12:10:22 AM 29.9467 -93.4383 85° East 471 542 23,000  Level Houston Center
Fri 12:11:22 AM 29.9575 -93.2903 85° East 470 541 23,000  Level Houston Center
Fri 12:12:23 AM 29.9711 -93.1142 85° East 466 536 23,000  Level Houston Center
Fri 12:13:23 AM 29.9819 -92.9664 85° East 465 535 23,000  Level Houston Center
Fri 12:14:24 AM 29.9925 -92.8211 85° East 459 528 23,000  Level Houston Center
Fri 12:15:24 AM 30.0036 -92.6714 85° East 467 537 23,000  Level Houston Center
Fri 12:16:25 AM 30.0144 -92.5206 85° East 473 544 23,000  Level Houston Center
Fri 12:17:25 AM 30.0247 -92.3736 85° East 465 535 23,000  Level Houston Center
Fri 12:18:26 AM 30.0350 -92.2267 85° East 461 531 23,000  Level Houston Center
Fri 12:19:26 AM 30.0444 -92.0797 86° East 461 531 23,000  Level Houston Center
Fri 12:20:27 AM 30.0550 -91.9322 85° East 463 533 23,000  Level Houston Center
Fri 12:21:27 AM 30.0647 -91.7853 86° East 461 531 23,000 -595 Level Houston Center
Fri 12:22:28 AM 30.0747 -91.6278 86° East 463 533 21,800 -1,587 Descending Houston Center
Fri 12:23:28 AM 30.0839 -91.4825 86° East 458 527 19,800 -2,033 Descending Houston Center
Fri 12:24:29 AM 30.0922 -91.3494 86° East 423 487 17,700 -2,132 Descending Houston Center
Fri 12:25:29 AM 30.0997 -91.2256 86° East 393 452 15,500 -2,286 Descending Houston Center
Fri 12:25:53 AM 30.1031 -91.1739 86° East 380 437 14,500 -2,300 Descending Houston Center
Fri 12:26:29 AM 30.1078 -91.1058 85° East 376 433 13,200 -2,164 Descending Houston Center
Fri 12:26:54 AM 30.1108 -91.0536 86° East 375 432 12,300 -2,262 Descending Houston Center
Fri 12:27:30 AM 30.1156 -90.9836 86° East 383 441 10,900 -2,200 Descending Houston Center
Fri 12:27:54 AM 30.1097 -90.9261 97° East 368 423 10,100 -900 Descending Houston Center
Fri 12:28:30 AM 30.1108 -90.8742 89° East 350 403 10,000 -197 Descending Houston Center
Fri 12:28:55 AM 30.1072 -90.8278 95° East 287 330 9,900 -1,180 Descending Houston Center
Fri 12:29:31 AM 30.1031 -90.7864 97° East 286 329 8,800 -2,100 Descending Houston Center
Fri 12:29:55 AM 30.1008 -90.7414 93° East 261 300 7,800 -1,900 Descending Houston Center
Fri 12:30:31 AM 30.0969 -90.6989 96° East 278 320 6,900 -1,672 Descending Houston Center
Fri 12:30:56 AM 30.0839 -90.6556 109° East 274 315 6,100 -1,770 Descending Houston Center
Fri 12:31:32 AM 30.0764 -90.6158 102° East 272 313 5,100 -1,869 Descending Houston Center
Fri 12:31:57 AM 30.0647 -90.5747 108° East 260 299 4,200 -1,100 Descending Houston Center
Fri 12:32:32 AM 30.0578 -90.5378 102° East 264 304 4,000 -100 Descending Houston Center
Fri 12:32:57 AM 30.0503 -90.5056 105° East 212 244 4,100 -500 Climbing Houston Center
Fri 12:33:32 AM 30.0436 -90.4775 105° East 222 255 3,500 -1,279 Descending Houston Center
Fri 12:33:58 AM 30.0361 -90.4461 105° East 193 222 2,800 -1,180 Descending Houston Center
Fri 12:34:33 AM 30.0308 -90.4169 102° East 204 235 2,300 -1,000 Descending Houston Center
Fri 12:34:58 AM 30.0242 -90.3911 107° East 163 188 1,800 -900 Descending Houston Center
Fri 12:35:33 AM 30.0175 -90.3686 109° East 182 209 1,400 -689 Descending Houston Center
Fri 12:35:59 AM 30.0122 -90.3461 105° East 129 148 1,100 -600 Descending Houston Center
Fri 12:36:33 AM 30.0094 -90.3306 102° East 149 171 800 -590 Descending Houston Center
Fri 12:37:00 AM 30.0028 -90.3081 109° East 139 160 500 -295 Descending Houston Center
Fri 12:37:34 AM 29.9981 -90.2869 104° East 138 159 500  Level Houston Center

Login

Don't have an account? Register now (free) for customized features, flight alerts, and more!